Time;durP1;ratioP1;P1;durP2;ratioP2;P2;SDS_P1;SDS_P2;PMS_P1;PMS_P2;Temp;Humidity;BMP_temperature;BMP_pressure;BME280_temperature;BME280_humidity;BME280_pressure;Samples;Min_cycle;Max_cycle;Signal;HPM_P1;HPM_P2
2022/05/31 00:01:51;;;;;;;3.22;1.60;;;;;;;7.43;100.00;100552.13;6090027;29;20048;-90
2022/05/31 00:04:53;;;;;;;3.20;1.75;;;;;;;7.43;100.00;100552.13;6067231;29;20044;-90
2022/05/31 00:07:55;;;;;;;2.65;1.77;;;;;;;7.36;100.00;100550.03;6090257;29;20080;-90
2022/05/31 00:10:58;;;;;;;3.60;2.08;;;;;;;7.33;100.00;100548.50;6087946;29;20554;-90
2022/05/31 00:14:00;;;;;;;3.78;2.00;;;;;;;7.31;100.00;100547.75;6089541;29;20434;-90
2022/05/31 00:17:02;;;;;;;2.65;1.58;;;;;;;7.30;100.00;100546.94;6087068;29;20032;-89
2022/05/31 00:20:05;;;;;;;2.15;1.67;;;;;;;7.34;100.00;100540.66;6083587;29;20301;-90
2022/05/31 00:23:08;;;;;;;2.63;1.48;;;;;;;7.38;100.00;100543.88;6082307;29;20298;-90
2022/05/31 00:26:10;;;;;;;4.65;1.80;;;;;;;7.34;100.00;100545.78;6083106;29;20066;-90
2022/05/31 00:29:13;;;;;;;1.80;1.40;;;;;;;7.25;100.00;100546.38;6084490;29;20048;-90
2022/05/31 00:32:21;;;;;;;3.40;1.60;;;;;;;7.25;100.00;100548.97;6068051;29;20510;-90
2022/05/31 00:35:26;;;;;;;3.70;1.90;;;;;;;7.19;100.00;100548.56;6092185;29;20040;-90
2022/05/31 00:38:28;;;;;;;6.32;2.45;;;;;;;7.10;100.00;100549.94;6090281;29;20566;-90
2022/05/31 00:41:32;;;;;;;2.90;1.95;;;;;;;7.16;100.00;100551.34;6090026;29;20052;-90
2022/05/31 00:44:35;;;;;;;2.17;1.70;;;;;;;7.02;100.00;100550.44;6089413;29;20059;-90
2022/05/31 00:47:37;;;;;;;2.50;1.65;;;;;;;7.00;100.00;100544.56;6091030;29;20139;-90
2022/05/31 00:51:08;;;;;;;2.47;1.70;;;;;;;6.90;100.00;100548.66;6072569;29;20072;-90
2022/05/31 00:54:13;;;;;;;;;;;;;;;6.75;100.00;100534.19;6088810;29;20076;-90
2022/05/31 00:57:16;;;;;;;3.22;1.70;;;;;;;6.75;100.00;100539.31;6074051;29;19927;-90
2022/05/31 01:00:18;;;;;;;2.38;1.80;;;;;;;6.68;100.00;100538.88;6089604;29;20048;-90
2022/05/31 01:03:22;;;;;;;4.10;1.90;;;;;;;6.71;100.00;100540.44;6089835;29;20044;-90
2022/05/31 01:06:24;;;;;;;2.13;1.50;;;;;;;6.62;100.00;100547.81;6072972;29;20183;-90
2022/05/31 01:09:28;;;;;;;2.25;1.52;;;;;;;6.62;100.00;100541.84;6072922;29;20139;-90
2022/05/31 01:12:50;;;;;;;2.05;1.70;;;;;;;6.60;100.00;100546.25;6089427;29;20473;-90
2022/05/31 01:16:18;;;;;;;2.35;2.00;;;;;;;6.60;100.00;100548.81;6087950;29;20048;-90
2022/05/31 01:20:04;;;;;;;2.45;1.88;;;;;;;6.50;100.00;100534.88;6088381;29;20052;-90
2022/05/31 01:23:37;;;;;;;5.32;1.75;;;;;;;6.48;100.00;100537.53;6071193;29;20052;-90
2022/05/31 01:26:50;;;;;;;5.00;1.92;;;;;;;6.52;100.00;100536.44;6088768;29;20051;-90
2022/05/31 01:29:53;;;;;;;4.28;1.80;;;;;;;6.50;100.00;100535.72;6101614;29;20122;-90
2022/05/31 01:33:01;;;;;;;4.10;1.80;;;;;;;6.46;100.00;100536.84;6073283;29;20788;-90
2022/05/31 01:36:09;;;;;;;2.67;2.10;;;;;;;6.46;100.00;100534.28;6094175;29;20103;-90
2022/05/31 01:39:19;;;;;;;3.88;1.70;;;;;;;6.43;100.00;100537.84;6092451;29;20052;-90
2022/05/31 01:42:29;;;;;;;2.03;1.60;;;;;;;6.46;100.00;100547.13;6091729;29;20066;-90
2022/05/31 01:45:38;;;;;;;2.40;1.70;;;;;;;6.36;100.00;100541.72;6089836;29;20059;-90
2022/05/31 01:48:43;;;;;;;3.70;1.70;;;;;;;6.34;100.00;100538.41;6093914;29;20118;-90
2022/05/31 01:51:45;;;;;;;1.70;1.60;;;;;;;6.29;100.00;100537.88;6093227;29;20040;-90
2022/05/31 01:54:52;;;;;;;3.22;1.60;;;;;;;6.30;100.00;100530.97;6075528;29;20059;-89
2022/05/31 01:57:58;;;;;;;1.80;1.40;;;;;;;6.29;100.00;100535.28;6076254;29;20044;-90
2022/05/31 02:01:03;;;;;;;2.03;1.77;;;;;;;6.35;100.00;100526.38;6076059;29;20399;-89
2022/05/31 02:04:06;;;;;;;4.35;1.80;;;;;;;6.36;100.00;100535.72;6091534;29;20477;-90
2022/05/31 02:07:21;;;;;;;2.75;1.50;;;;;;;6.31;100.00;100540.31;6094671;29;20036;-90
2022/05/31 02:10:24;;;;;;;2.05;1.85;;;;;;;6.27;100.00;100538.88;6074651;29;20126;-90
2022/05/31 02:13:26;;;;;;;3.28;1.60;;;;;;;6.23;100.00;100539.03;6093078;29;20040;-90
2022/05/31 02:16:40;;;;;;;4.20;1.85;;;;;;;6.15;100.00;100530.97;6076110;29;20067;-90
2022/05/31 02:20:01;;;;;;;2.80;1.85;;;;;;;6.10;100.00;100524.47;6089673;29;20060;-90
2022/05/31 02:23:08;;;;;;;2.75;1.70;;;;;;;6.15;100.00;100536.13;6092027;29;20131;-89
2022/05/31 02:26:10;;;;;;;1.95;1.70;;;;;;;6.08;100.00;100527.13;6091575;29;20147;-90
2022/05/31 02:29:16;;;;;;;1.77;1.55;;;;;;;6.12;100.00;100538.06;6091588;29;20052;-90
2022/05/31 02:32:18;;;;;;;2.50;1.65;;;;;;;6.13;100.00;100532.00;6074221;29;20314;-90
2022/05/31 02:35:20;;;;;;;1.92;1.40;;;;;;;6.04;100.00;100530.81;6077794;29;20052;-90
2022/05/31 02:38:22;;;;;;;2.63;1.65;;;;;;;5.99;100.00;100535.41;6087101;29;20562;-90
2022/05/31 02:41:25;;;;;;;2.65;1.60;;;;;;;5.95;100.00;100529.59;6089624;29;20094;-90
2022/05/31 02:44:27;;;;;;;1.65;1.50;;;;;;;5.95;100.00;100531.34;6089368;29;20246;-89
2022/05/31 02:47:31;;;;;;;2.05;1.80;;;;;;;5.87;100.00;100529.22;6072837;29;20403;-90
2022/05/31 02:50:33;;;;;;;1.67;1.48;;;;;;;5.83;100.00;100525.16;6074080;29;20590;-90
2022/05/31 02:53:35;;;;;;;2.00;1.60;;;;;;;5.83;100.00;100531.13;6090432;29;20048;-90
2022/05/31 02:56:38;;;;;;;2.75;1.40;;;;;;;5.80;100.00;100526.16;6086046;29;20048;-90
2022/05/31 02:59:58;;;;;;;2.30;1.58;;;;;;;5.79;100.00;100521.13;6090415;29;20517;-90
2022/05/31 03:03:20;;;;;;;2.03;1.70;;;;;;;5.87;100.00;100531.78;6091057;29;20482;-89
2022/05/31 03:06:40;;;;;;;2.17;1.52;;;;;;;5.88;100.00;100530.03;6091649;29;20056;-89
2022/05/31 03:09:46;;;;;;;1.90;1.60;;;;;;;5.92;100.00;100527.19;6090119;29;20048;-90
2022/05/31 03:12:50;;;;;;;3.92;1.90;;;;;;;5.88;100.00;100527.47;6088271;29;20090;-90
2022/05/31 03:15:57;;;;;;;2.83;1.92;;;;;;;5.89;100.00;100527.38;6073218;29;20044;-90
2022/05/31 03:19:04;;;;;;;2.97;1.70;;;;;;;5.85;100.00;100523.34;6091005;29;20071;-90
2022/05/31 03:22:13;;;;;;;3.05;2.00;;;;;;;5.85;100.00;100522.50;6090935;29;20068;-90
2022/05/31 03:25:20;;;;;;;2.42;1.67;;;;;;;5.85;100.00;100518.19;6073507;29;20048;-90
2022/05/31 03:28:22;;;;;;;3.35;1.60;;;;;;;5.88;100.00;100522.31;6079456;29;20052;-90
2022/05/31 03:31:25;;;;;;;1.60;1.50;;;;;;;5.88;100.00;100525.72;6089842;29;20044;-90
2022/05/31 03:34:26;;;;;;;4.25;2.25;;;;;;;5.92;100.00;100513.53;6092717;29;20052;-90
2022/05/31 03:37:28;;;;;;;2.75;1.83;;;;;;;5.97;100.00;100517.50;6091406;29;20044;-90
2022/05/31 03:43:56;;;;;;;3.15;1.80;;;;;;;6.01;100.00;100523.25;6089688;29;20391;-90
2022/05/31 03:46:57;;;;;;;3.47;1.67;;;;;;;6.09;100.00;100522.81;6091295;29;20059;-89
2022/05/31 03:50:22;;;;;;;2.67;2.10;;;;;;;6.13;100.00;100514.81;6071373;29;20060;-90
2022/05/31 03:53:26;;;;;;;2.20;1.83;;;;;;;6.13;100.00;100519.13;6073107;29;20040;-90
2022/05/31 03:56:28;;;;;;;3.75;1.55;;;;;;;6.23;100.00;100517.66;6088084;29;20075;-90
2022/05/31 03:59:35;;;;;;;2.33;1.80;;;;;;;6.25;100.00;100506.38;6089151;29;20081;-90
2022/05/31 04:02:38;;;;;;;2.50;1.90;;;;;;;6.28;100.00;100512.25;6088602;29;20041;-90
2022/05/31 04:05:40;;;;;;;1.73;1.50;;;;;;;6.20;100.00;100507.56;6074125;29;20556;-90
2022/05/31 04:08:42;;;;;;;2.60;1.40;;;;;;;6.16;100.00;100508.66;6083883;29;20604;-90
2022/05/31 04:11:45;;;;;;;2.25;1.77;;;;;;;6.18;100.00;100511.97;6083101;29;20053;-90
2022/05/31 04:14:58;;;;;;;3.17;1.50;;;;;;;6.20;100.00;100508.38;6087936;29;20048;-90
2022/05/31 04:18:01;;;;;;;3.22;1.52;;;;;;;6.26;100.00;100517.50;6088119;29;20048;-90
2022/05/31 04:21:06;;;;;;;2.03;1.80;;;;;;;6.31;100.00;100517.19;6072379;29;20419;-90
2022/05/31 04:24:09;;;;;;;2.45;1.60;;;;;;;6.30;100.00;100515.56;6087722;29;20100;-90
2022/05/31 04:27:17;;;;;;;5.53;2.58;;;;;;;6.35;100.00;100508.38;6089668;29;20048;-90
2022/05/31 04:30:38;;;;;;;2.67;1.73;;;;;;;6.39;100.00;100522.72;6088094;29;20490;-90
2022/05/31 04:33:58;;;;;;;4.18;1.90;;;;;;;6.49;100.00;100515.25;6089221;29;20052;-89
2022/05/31 04:37:01;;;;;;;2.38;1.70;;;;;;;6.52;100.00;100522.78;6074575;29;20048;-89
2022/05/31 04:40:24;;;;;;;5.05;1.67;;;;;;;6.58;100.00;100523.19;6088670;29;20192;-89
2022/05/31 04:43:38;;;;;;;2.10;1.75;;;;;;;6.65;100.00;100521.06;6086051;29;20048;-89
2022/05/31 04:46:45;;;;;;;2.50;2.20;;;;;;;6.73;100.00;100525.72;6086888;29;20490;-89
2022/05/31 04:49:56;;;;;;;2.90;2.33;;;;;;;6.85;100.00;100522.38;6072159;29;20051;-90
2022/05/31 04:52:58;;;;;;;4.18;2.00;;;;;;;7.01;100.00;100523.06;6069167;29;20086;-89
2022/05/31 04:56:06;;;;;;;3.72;1.98;;;;;;;7.26;100.00;100519.72;6075136;29;20056;-89
2022/05/31 04:59:09;;;;;;;2.67;2.00;;;;;;;7.57;100.00;100528.00;6085761;29;20044;-89
2022/05/31 05:02:11;;;;;;;3.60;1.90;;;;;;;7.84;100.00;100527.91;6087520;29;20191;-89
2022/05/31 05:05:34;;;;;;;2.28;1.92;;;;;;;8.11;100.00;100527.78;6071155;29;20087;-89
2022/05/31 05:08:48;;;;;;;3.05;2.08;;;;;;;8.41;100.00;100529.22;6070797;29;20913;-89
2022/05/31 05:11:50;;;;;;;2.97;2.05;;;;;;;8.64;100.00;100530.16;6074395;29;20164;-89
2022/05/31 05:15:06;;;;;;;3.97;2.42;;;;;;;8.82;100.00;100526.28;6075318;29;20407;-89
2022/05/31 05:18:09;;;;;;;3.63;2.08;;;;;;;8.96;100.00;100527.06;6074545;29;20184;-89
2022/05/31 05:21:14;;;;;;;3.33;2.08;;;;;;;8.98;100.00;100517.44;6086574;29;20055;-89
2022/05/31 05:24:17;;;;;;;4.70;1.98;;;;;;;9.03;100.00;100523.09;6075264;29;20892;-89
2022/05/31 05:27:32;;;;;;;4.85;2.33;;;;;;;9.03;100.00;100518.75;6089185;29;20048;-89
2022/05/31 05:30:53;;;;;;;2.58;2.00;;;;;;;9.06;100.00;100525.44;6090767;29;20044;-90
2022/05/31 05:33:55;;;;;;;3.55;2.00;;;;;;;9.09;100.00;100526.97;6091469;29;20036;-89
2022/05/31 05:37:05;;;;;;;4.60;1.95;;;;;;;9.06;100.00;100525.44;6076740;29;20060;-89
2022/05/31 05:40:08;;;;;;;3.88;2.00;;;;;;;9.00;100.00;100525.91;6075728;29;20510;-89
2022/05/31 05:43:18;;;;;;;3.13;1.93;;;;;;;8.93;100.00;100527.28;6074660;29;20048;-89
2022/05/31 05:46:28;;;;;;;3.13;2.25;;;;;;;8.89;100.00;100534.41;6092836;29;20486;-89
2022/05/31 05:49:31;;;;;;;2.08;1.80;;;;;;;8.90;100.00;100530.91;6092715;29;20051;-89
2022/05/31 05:52:39;;;;;;;4.32;2.20;;;;;;;8.97;100.00;100526.13;6082962;29;20053;-89
2022/05/31 05:56:07;;;;;;;6.03;2.17;;;;;;;9.07;100.00;100537.44;5996946;29;20062;-89
2022/05/31 05:59:28;;;;;;;4.22;1.90;;;;;;;9.20;100.00;100533.03;5996805;29;20061;-89
2022/05/31 06:03:09;;;;;;;5.63;2.30;;;;;;;9.29;100.00;100531.50;5996963;29;20092;-89
2022/05/31 06:06:32;;;;;;;4.88;2.22;;;;;;;9.35;100.00;100525.91;6004353;29;20062;-89
2022/05/31 06:09:35;;;;;;;4.93;2.22;;;;;;;9.49;100.00;100532.66;5980377;29;20536;-89
2022/05/31 06:12:42;;;;;;;4.70;2.00;;;;;;;9.67;100.00;100526.09;5998138;29;20564;-89
2022/05/31 06:15:50;;;;;;;3.45;2.20;;;;;;;9.92;100.00;100519.88;5996064;29;20045;-89
2022/05/31 06:19:02;;;;;;;3.72;2.25;;;;;;;10.17;100.00;100523.16;5972388;29;20053;-89
2022/05/31 06:22:07;;;;;;;2.95;1.80;;;;;;;10.39;100.00;100517.19;5977196;29;20060;-89
2022/05/31 06:25:22;;;;;;;4.38;2.00;;;;;;;10.55;100.00;100521.97;5974200;29;20049;-89
2022/05/31 06:28:43;;;;;;;4.28;2.05;;;;;;;10.77;100.00;100513.31;5975972;29;20056;-89
2022/05/31 06:31:45;;;;;;;3.00;2.08;;;;;;;10.94;100.00;100517.97;5993033;29;20047;-88
2022/05/31 06:35:02;;;;;;;5.60;2.10;;;;;;;11.10;100.00;100522.72;6071111;29;20126;-88
2022/05/31 06:38:17;;;;;;;2.65;1.83;;;;;;;11.20;100.00;100512.44;6067791;29;20052;-88
2022/05/31 06:41:21;;;;;;;2.65;2.05;;;;;;;11.29;100.00;100518.66;6069685;29;20166;-88
2022/05/31 06:44:44;;;;;;;4.53;2.45;;;;;;;11.35;100.00;100513.78;6085776;29;20067;-88
2022/05/31 06:48:04;;;;;;;2.72;1.85;;;;;;;11.43;100.00;100520.94;6088103;29;20048;-88
2022/05/31 06:58:53;;;;;;;2.85;1.73;;;;;;;11.86;100.00;100514.75;6075838;29;20131;-88
2022/05/31 07:02:03;;;;;;;2.58;1.88;;;;;;;12.10;100.00;100519.66;6071796;29;20052;-89
2022/05/31 07:05:06;;;;;;;4.30;1.52;;;;;;;12.35;100.00;100520.97;6088104;29;20043;-88
2022/05/31 07:08:08;;;;;;;2.30;1.45;;;;;;;12.53;100.00;100509.94;6071304;29;20187;-88
2022/05/31 07:11:29;;;;;;;2.47;1.60;;;;;;;12.65;100.00;100512.25;6066486;29;20052;-88
2022/05/31 07:14:50;;;;;;;3.17;1.73;;;;;;;12.73;100.00;100510.78;6089041;29;20401;-88
2022/05/31 07:18:10;;;;;;;3.42;1.65;;;;;;;12.74;100.00;100520.19;6088379;29;20424;-88
2022/05/31 07:21:13;;;;;;;4.80;1.63;;;;;;;12.69;100.00;100515.41;6075393;29;20126;-89
2022/05/31 07:24:16;;;;;;;3.47;1.63;;;;;;;12.68;100.00;100518.97;6067217;29;20052;-88
2022/05/31 07:27:44;;;;;;;3.97;1.40;;;;;;;12.53;100.00;100508.16;6073126;29;20056;-89
2022/05/31 07:30:46;;;;;;;2.72;1.45;;;;;;;12.49;100.00;100510.16;6057598;29;20570;-89
2022/05/31 07:33:58;;;;;;;1.90;1.67;;;;;;;12.45;100.00;100510.59;6071071;29;20446;-89
2022/05/31 07:37:00;;;;;;;1.58;1.45;;;;;;;12.43;100.00;100508.13;6083589;29;20055;-88
2022/05/31 07:40:05;;;;;;;3.70;1.42;;;;;;;12.42;100.00;100508.25;6074189;29;20082;-88
2022/05/31 07:43:10;;;;;;;4.65;2.25;;;;;;;12.41;100.00;100499.66;6062762;29;20101;-88
2022/05/31 07:46:13;;;;;;;1.95;1.45;;;;;;;12.45;100.00;100505.41;6064870;29;20063;-88
2022/05/31 07:49:15;;;;;;;3.30;1.52;;;;;;;12.46;100.00;100496.66;6054734;29;20169;-88
2022/05/31 07:52:27;;;;;;;5.80;1.50;;;;;;;12.51;100.00;100499.66;6084658;29;20120;-88
2022/05/31 07:56:06;;;;;;;3.92;1.60;;;;;;;12.55;99.12;100495.84;6071954;29;20048;-88
2022/05/31 07:59:27;;;;;;;2.72;1.38;;;;;;;12.57;97.85;100499.16;6071196;29;20538;-88
2022/05/31 08:02:51;;;;;;;3.55;1.40;;;;;;;12.68;96.59;100486.03;6086201;29;20505;-89
2022/05/31 08:05:53;;;;;;;4.75;1.30;;;;;;;12.74;98.48;100489.03;6088470;29;20044;-89
2022/05/31 08:08:59;;;;;;;6.28;1.70;;;;;;;12.82;94.83;100481.38;6088048;29;20040;-89
2022/05/31 08:12:00;;;;;;;3.45;1.30;;;;;;;12.88;95.71;100470.44;6090392;29;20118;-89
2022/05/31 08:15:04;;;;;;;2.50;1.20;;;;;;;13.01;92.37;100470.16;6098547;29;20057;-89
2022/05/31 08:18:06;;;;;;;1.52;1.00;;;;;;;13.05;92.51;100469.75;6090003;29;20044;-89
2022/05/31 08:21:15;;;;;;;3.75;1.20;;;;;;;13.01;89.79;100467.56;6088347;29;20495;-89
2022/05/31 08:24:17;;;;;;;2.58;1.17;;;;;;;13.00;90.55;100463.31;6083590;29;20127;-89
2022/05/31 08:27:39;;;;;;;3.10;1.17;;;;;;;13.09;91.39;100462.47;6085647;29;20044;-89
2022/05/31 08:30:43;;;;;;;2.40;1.00;;;;;;;13.33;90.67;100462.88;6086057;29;20090;-88
2022/05/31 08:33:45;;;;;;;6.25;1.10;;;;;;;13.48;89.10;100457.22;6068244;29;20155;-88
2022/05/31 08:36:47;;;;;;;2.78;1.27;;;;;;;13.57;88.48;100452.00;6088206;29;20044;-88
2022/05/31 08:39:50;;;;;;;2.05;0.82;;;;;;;13.64;84.36;100447.06;6086551;29;20122;-88
2022/05/31 08:42:58;;;;;;;1.92;1.00;;;;;;;13.82;83.98;100447.13;6087409;29;20059;-88
2022/05/31 08:46:07;;;;;;;1.65;1.05;;;;;;;14.04;84.76;100447.69;6085871;29;20068;-88
2022/05/31 08:51:52;;;;;;;2.90;1.27;;;;;;;14.31;78.38;100447.66;6086103;29;20036;-88
2022/05/31 08:53:30;;;;;;;4.07;1.55;;;;;;;14.57;83.22;100446.97;6071013;29;20050;-88
2022/05/31 09:00:00;;;;;;;3.53;1.77;;;;;;;14.82;75.08;100435.75;6066397;29;20585;-88
2022/05/31 09:03:21;;;;;;;2.33;1.30;;;;;;;14.90;78.31;100437.63;6070906;29;20631;-88
2022/05/31 09:06:58;;;;;;;2.65;1.13;;;;;;;15.05;76.47;100437.88;6091590;29;20099;-87
2022/05/31 09:10:16;;;;;;;2.42;1.02;;;;;;;15.23;70.11;100440.47;6086314;29;20396;-87
2022/05/31 09:13:23;;;;;;;3.60;1.33;;;;;;;15.32;69.67;100436.91;6071141;29;20052;-87
2022/05/31 09:16:37;;;;;;;3.20;1.52;;;;;;;15.48;69.94;100441.44;6086046;29;20581;-86
2022/05/31 09:19:44;;;;;;;2.65;1.20;;;;;;;15.65;65.57;100439.69;6087499;29;20052;-87
2022/05/31 09:22:47;;;;;;;2.88;1.08;;;;;;;15.80;66.25;100442.56;6084046;29;20051;-87
2022/05/31 09:25:58;;;;;;;1.55;0.85;;;;;;;15.98;60.33;100452.94;6085626;29;20496;-88
2022/05/31 09:29:22;;;;;;;2.58;1.00;;;;;;;15.94;56.07;100458.44;6087476;29;20036;-87
2022/05/31 09:32:49;;;;;;;2.42;1.10;;;;;;;15.98;56.36;100450.31;6087578;29;20051;-87
2022/05/31 09:36:09;;;;;;;2.13;1.65;;;;;;;16.02;54.52;100446.38;6085450;29;20497;-87
2022/05/31 09:39:22;;;;;;;2.22;1.63;;;;;;;16.06;53.23;100452.94;6081011;29;20099;-87
2022/05/31 09:42:34;;;;;;;2.72;1.75;;;;;;;16.23;54.42;100444.19;6076667;29;20048;-87
2022/05/31 09:45:58;;;;;;;2.70;1.50;;;;;;;16.35;51.35;100447.31;6072783;29;20506;-87
2022/05/31 09:49:15;;;;;;;3.53;1.77;;;;;;;16.52;53.26;100438.50;6085839;29;20051;-87
2022/05/31 09:52:38;;;;;;;2.83;1.80;;;;;;;16.78;50.95;100437.56;6087179;29;20404;-87
2022/05/31 09:59:25;;;;;;;3.28;1.70;;;;;;;17.12;48.05;100419.06;5968203;29;20065;-87
2022/05/31 10:03:14;;;;;;;4.57;1.58;;;;;;;17.17;51.48;100421.19;5906990;30;20100;-86
2022/05/31 10:06:29;;;;;;;1.80;1.38;;;;;;;17.25;50.36;100412.50;5899775;30;20051;-87
2022/05/31 10:09:37;;;;;;;2.05;1.67;;;;;;;17.15;52.05;100402.22;5894687;30;20068;-87
2022/05/31 10:12:59;;;;;;;3.00;1.65;;;;;;;17.18;52.60;100409.72;5901165;30;20051;-87
2022/05/31 10:16:19;;;;;;;2.00;1.60;;;;;;;17.28;51.32;100402.50;5901470;30;20069;-87
2022/05/31 10:19:30;;;;;;;2.58;1.70;;;;;;;17.42;49.71;100404.44;5896225;30;20048;-87
2022/05/31 10:22:32;;;;;;;3.58;1.60;;;;;;;17.48;46.84;100404.75;5895522;30;20582;-87
2022/05/31 10:25:56;;;;;;;3.13;1.60;;;;;;;17.46;47.07;100398.84;5899034;30;20146;-87
2022/05/31 10:29:01;;;;;;;2.47;1.70;;;;;;;17.60;49.17;100401.59;5905286;30;20116;-87
2022/05/31 10:32:42;;;;;;;4.18;1.70;;;;;;;17.54;49.62;100393.59;5897419;29;20468;-87
2022/05/31 10:35:46;;;;;;;1.73;1.55;;;;;;;17.72;51.21;100382.88;6003570;29;20075;-87
2022/05/31 10:38:49;;;;;;;1.73;1.42;;;;;;;17.85;53.40;100383.97;6090123;29;20126;-87
2022/05/31 10:41:54;;;;;;;1.73;1.45;;;;;;;18.06;47.85;100387.78;6089002;29;20052;-87
2022/05/31 10:45:02;;;;;;;3.50;1.73;;;;;;;18.32;47.17;100381.41;6081656;29;20037;-88
2022/05/31 10:48:04;;;;;;;2.13;1.52;;;;;;;18.63;46.37;100379.53;6088466;29;20032;-87
2022/05/31 10:51:13;;;;;;;3.38;1.50;;;;;;;18.96;43.20;100374.00;6088015;29;20521;-87
2022/05/31 10:54:41;;;;;;;2.83;1.40;;;;;;;19.29;46.62;100382.31;6087294;29;20592;-87
2022/05/31 10:57:52;;;;;;;2.72;1.67;;;;;;;19.56;44.53;100386.09;6087297;29;20051;-87
2022/05/31 11:01:18;;;;;;;6.03;1.80;;;;;;;19.59;39.50;100380.47;6088421;29;20573;-87
2022/05/31 11:04:41;;;;;;;3.92;1.60;;;;;;;19.60;43.06;100378.66;6088588;29;20067;-88
2022/05/31 11:11:37;;;;;;;2.40;1.30;;;;;;;19.79;44.18;100377.28;6083997;29;20127;-87
2022/05/31 11:14:51;;;;;;;3.08;1.40;;;;;;;20.02;45.24;100379.75;6086310;29;20071;-87
2022/05/31 11:18:20;;;;;;;2.53;1.50;;;;;;;20.29;40.77;100380.81;6083474;29;20055;-87
2022/05/31 11:21:57;;;;;;;2.28;1.50;;;;;;;20.76;43.77;100378.63;6087781;29;20517;-87
2022/05/31 11:25:33;;;;;;;2.38;1.55;;;;;;;21.37;39.41;100376.16;6088667;29;20048;-87
2022/05/31 11:29:16;;;;;;;2.15;1.50;;;;;;;21.79;38.88;100365.56;6085294;29;20040;-87
2022/05/31 11:32:49;;;;;;;2.10;1.23;;;;;;;21.87;38.90;100366.22;6071632;29;20398;-87
2022/05/31 11:35:59;;;;;;;2.55;1.50;;;;;;;21.87;41.57;100370.69;6085707;29;20051;-87
2022/05/31 11:39:29;;;;;;;4.07;1.52;;;;;;;21.91;40.32;100366.63;6086389;29;20035;-86
2022/05/31 11:43:09;;;;;;;2.25;1.40;;;;;;;21.78;41.85;100364.75;6070332;29;20133;-87
2022/05/31 11:46:17;;;;;;;4.50;1.70;;;;;;;21.93;39.41;100364.59;6084412;29;20433;-88
2022/05/31 11:49:35;;;;;;;2.72;1.40;;;;;;;21.98;37.85;100364.81;6085271;29;20051;-87
2022/05/31 11:53:03;;;;;;;2.10;1.33;;;;;;;22.18;40.18;100364.84;6084980;29;20112;-87
2022/05/31 11:56:07;;;;;;;2.25;1.38;;;;;;;22.19;40.13;100360.41;6084404;29;20047;-87
2022/05/31 11:59:45;;;;;;;3.20;1.30;;;;;;;22.03;37.77;100351.03;6084780;29;20040;-87
2022/05/31 12:02:54;;;;;;;1.67;1.25;;;;;;;21.95;38.97;100359.94;6085440;29;20087;-87
2022/05/31 12:06:20;;;;;;;1.90;1.40;;;;;;;21.75;42.57;100343.28;6083574;29;20135;-88
2022/05/31 12:09:49;;;;;;;3.92;1.40;;;;;;;21.56;40.93;100339.56;6084854;29;20048;-87
2022/05/31 12:12:52;;;;;;;2.97;1.33;;;;;;;21.42;39.89;100336.91;6094104;29;20517;-87
2022/05/31 12:15:56;;;;;;;1.63;1.17;;;;;;;21.48;39.31;100330.84;6082635;29;20577;-87
2022/05/31 12:19:31;;;;;;;1.98;1.30;;;;;;;21.57;41.78;100328.84;6077017;29;20087;-88
2022/05/31 12:22:38;;;;;;;1.98;1.27;;;;;;;21.58;40.81;100319.13;6082087;29;20107;-87
2022/05/31 12:25:46;;;;;;;2.15;1.40;;;;;;;21.45;41.38;100312.00;6071999;29;20043;-88
2022/05/31 12:28:57;;;;;;;4.53;1.52;;;;;;;21.35;40.10;100308.88;6070932;29;20067;-88
2022/05/31 12:32:53;;;;;;;2.55;1.30;;;;;;;21.45;46.21;100301.47;6071711;29;20036;-88
2022/05/31 12:35:58;;;;;;;3.83;1.40;;;;;;;21.70;44.30;100302.53;6004139;29;20064;-89
2022/05/31 12:39:30;;;;;;;3.00;1.25;;;;;;;22.09;40.91;100308.88;6009828;29;20055;-88
2022/05/31 12:42:38;;;;;;;3.65;1.35;;;;;;;23.24;39.29;100305.88;6007349;29;20064;-88
2022/05/31 12:45:44;;;;;;;1.45;1.27;;;;;;;23.93;36.15;100312.22;6005681;29;20056;-88
2022/05/31 12:49:15;;;;;;;3.53;1.48;;;;;;;24.08;36.14;100311.91;6013730;29;20056;-88
2022/05/31 12:55:45;;;;;;;3.45;1.55;;;;;;;24.85;39.26;100314.28;5919239;29;20585;-89
2022/05/31 12:58:49;;;;;;;3.25;1.40;;;;;;;25.44;36.87;100304.84;5918838;29;20406;-89
2022/05/31 13:02:00;;;;;;;3.50;1.42;;;;;;;25.67;34.21;100314.72;5918145;29;20049;-88
2022/05/31 13:05:24;;;;;;;2.80;1.20;;;;;;;25.52;31.86;100301.88;5927456;29;20062;-88
2022/05/31 13:08:48;;;;;;;1.92;1.67;;;;;;;25.44;31.09;100301.34;5922836;29;20059;-88
2022/05/31 13:22:16;;;;;;;;;;;;;;;24.03;37.06;100291.41;5989235;29;20809;-88
2022/05/31 13:25:24;;;;;;;3.08;1.30;;;;;;;24.08;34.55;100290.75;5975709;29;19940;-88
2022/05/31 13:28:30;;;;;;;2.67;1.60;;;;;;;23.79;37.43;100284.25;6010569;29;20056;-88
2022/05/31 13:31:33;;;;;;;3.50;1.50;;;;;;;23.50;39.85;100290.91;6087433;29;20048;-88
2022/05/31 13:34:42;;;;;;;4.38;2.78;;;;;;;23.06;36.69;100290.72;6089217;29;20593;-88
2022/05/31 13:38:22;;;;;;;3.05;1.70;;;;;;;22.24;35.12;100286.81;6088897;29;20051;-88
2022/05/31 13:41:24;;;;;;;1.92;1.20;;;;;;;21.68;38.10;100283.47;5996859;29;20097;-88
2022/05/31 13:44:30;;;;;;;1.65;1.35;;;;;;;21.53;35.26;100285.47;5994013;29;20058;-88
2022/05/31 13:47:33;;;;;;;2.17;1.40;;;;;;;21.58;38.04;100272.50;6000507;29;20057;-88
2022/05/31 13:50:50;;;;;;;1.63;1.30;;;;;;;21.52;36.08;100275.16;5995155;29;20144;-89
2022/05/31 13:53:52;;;;;;;2.33;1.27;;;;;;;21.18;39.08;100276.81;5997086;29;20049;-88
2022/05/31 13:57:01;;;;;;;3.25;1.90;;;;;;;20.64;37.70;100281.00;5996850;29;20471;-88
2022/05/31 14:00:07;;;;;;;1.75;1.10;;;;;;;20.10;38.63;100278.94;5992403;29;20061;-88
2022/05/31 14:03:37;;;;;;;2.65;1.33;;;;;;;19.70;44.48;100282.06;5994118;29;20065;-88
2022/05/31 14:06:41;;;;;;;3.13;1.58;;;;;;;19.49;41.22;100274.94;5990784;29;20049;-88
2022/05/31 14:09:54;;;;;;;6.70;3.72;;;;;;;19.35;41.36;100271.34;5992957;29;20050;-88
2022/05/31 14:13:01;;;;;;;6.80;4.13;;;;;;;19.30;40.03;100265.84;5996213;29;20050;-88
2022/05/31 14:16:11;;;;;;;1.73;1.10;;;;;;;19.39;41.10;100266.53;5996865;29;20049;-88
2022/05/31 14:19:26;;;;;;;5.75;1.40;;;;;;;19.81;40.25;100272.06;6083753;29;20163;-88
2022/05/31 14:22:37;;;;;;;1.83;1.50;;;;;;;20.37;39.88;100265.03;6080156;29;20041;-88
2022/05/31 14:25:45;;;;;;;2.45;1.30;;;;;;;20.81;37.53;100266.53;6083918;29;20044;-89
2022/05/31 14:29:18;;;;;;;2.90;1.60;;;;;;;20.83;37.86;100269.78;6071476;29;20044;-88
2022/05/31 14:32:25;;;;;;;1.88;1.30;;;;;;;20.56;36.66;100283.78;6052969;29;20067;-88
2022/05/31 14:35:46;;;;;;;2.90;1.40;;;;;;;19.87;40.68;100331.69;6085095;29;20143;-87
2022/05/31 14:38:48;;;;;;;2.90;1.85;;;;;;;18.73;50.45;100327.63;6086238;29;20614;-89
2022/05/31 14:41:56;;;;;;;7.50;2.00;;;;;;;17.70;53.94;100319.41;6083854;29;20736;-89
2022/05/31 14:45:12;;;;;;;4.20;2.85;;;;;;;16.93;58.81;100336.56;6088568;29;20533;-89
2022/05/31 14:48:29;;;;;;;4.82;2.72;;;;;;;16.20;67.24;100347.03;6088323;29;20051;-90
2022/05/31 14:51:37;;;;;;;5.13;2.97;;;;;;;15.61;72.54;100352.28;6087281;29;20130;-88
2022/05/31 14:54:41;;;;;;;4.22;2.70;;;;;;;14.96;75.26;100360.63;6088076;29;20047;-88
2022/05/31 15:01:14;;;;;;;;;;;;;;;14.17;93.16;100364.84;6071937;29;20147;-87
2022/05/31 15:04:23;;;;;;;5.50;3.40;;;;;;;13.80;97.98;100365.78;6085754;29;19927;-89
2022/05/31 15:07:31;;;;;;;4.87;3.50;;;;;;;13.61;100.00;100366.69;6089573;29;20068;-87
2022/05/31 15:10:54;;;;;;;6.90;3.90;;;;;;;13.37;100.00;100377.63;6086814;29;20033;-88
2022/05/31 15:20:51;;;;;;;8.38;4.32;;;;;;;14.50;100.00;100336.50;6086335;29;20048;-89
2022/05/31 15:23:53;;;;;;;5.32;3.80;;;;;;;15.29;100.00;100319.88;6085413;29;20517;-90
2022/05/31 15:26:58;;;;;;;6.05;4.18;;;;;;;15.58;100.00;100313.47;6073193;29;20507;-89
2022/05/31 15:30:02;;;;;;;5.55;4.32;;;;;;;15.72;100.00;100315.47;6093589;29;20603;-87
2022/05/31 15:33:05;;;;;;;4.32;3.67;;;;;;;15.93;100.00;100307.22;6066045;29;20155;-90
2022/05/31 15:36:07;;;;;;;6.30;4.30;;;;;;;16.23;100.00;100308.38;6086930;29;20545;-90